sensor_id;sensor_type;location;lat;lon;timestamp;P1;durP1;ratioP1;P2;durP2;ratioP2
78224;SDS011;67498;53.650;10.090;2024-01-16T00:00:06;2.80;;;0.93;;
78224;SDS011;67498;53.650;10.090;2024-01-16T00:02:32;3.67;;;0.98;;
78224;SDS011;67498;53.650;10.090;2024-01-16T00:04:58;3.43;;;0.57;;
78224;SDS011;67498;53.650;10.090;2024-01-16T00:07:23;2.07;;;0.40;;
78224;SDS011;67498;53.650;10.090;2024-01-16T00:09:48;5.00;;;1.00;;
78224;SDS011;67498;53.650;10.090;2024-01-16T00:12:17;2.05;;;0.65;;
78224;SDS011;67498;53.650;10.090;2024-01-16T00:14:42;3.40;;;0.70;;
78224;SDS011;67498;53.650;10.090;2024-01-16T00:17:08;2.23;;;0.50;;
78224;SDS011;67498;53.650;10.090;2024-01-16T00:19:35;3.40;;;0.40;;
78224;SDS011;67498;53.650;10.090;2024-01-16T00:22:00;13.15;;;1.02;;
78224;SDS011;67498;53.650;10.090;2024-01-16T00:24:27;2.83;;;0.82;;
78224;SDS011;67498;53.650;10.090;2024-01-16T00:26:52;10.53;;;0.90;;
78224;SDS011;67498;53.650;10.090;2024-01-16T00:29:18;2.03;;;0.50;;
78224;SDS011;67498;53.650;10.090;2024-01-16T00:31:43;7.07;;;0.93;;
78224;SDS011;67498;53.650;10.090;2024-01-16T00:34:08;3.93;;;1.47;;
78224;SDS011;67498;53.650;10.090;2024-01-16T00:36:33;3.90;;;1.00;;
78224;SDS011;67498;53.650;10.090;2024-01-16T00:38:59;3.90;;;1.00;;
78224;SDS011;67498;53.650;10.090;2024-01-16T00:41:24;3.63;;;1.03;;
78224;SDS011;67498;53.650;10.090;2024-01-16T00:43:49;3.17;;;0.80;;
78224;SDS011;67498;53.650;10.090;2024-01-16T00:46:15;4.63;;;1.20;;
78224;SDS011;67498;53.650;10.090;2024-01-16T00:48:40;5.25;;;1.52;;
78224;SDS011;67498;53.650;10.090;2024-01-16T00:51:05;3.75;;;0.93;;
78224;SDS011;67498;53.650;10.090;2024-01-16T00:53:30;2.50;;;0.65;;
78224;SDS011;67498;53.650;10.090;2024-01-16T00:55:56;4.50;;;0.73;;
78224;SDS011;67498;53.650;10.090;2024-01-16T00:58:21;4.43;;;1.00;;
78224;SDS011;67498;53.650;10.090;2024-01-16T01:00:47;6.87;;;1.20;;
78224;SDS011;67498;53.650;10.090;2024-01-16T01:03:12;2.83;;;0.73;;
78224;SDS011;67498;53.650;10.090;2024-01-16T01:05:37;6.82;;;1.13;;
78224;SDS011;67498;53.650;10.090;2024-01-16T01:08:03;2.70;;;0.60;;
78224;SDS011;67498;53.650;10.090;2024-01-16T01:10:29;2.90;;;0.70;;
78224;SDS011;67498;53.650;10.090;2024-01-16T01:12:54;2.43;;;0.60;;
78224;SDS011;67498;53.650;10.090;2024-01-16T01:15:20;2.10;;;0.63;;
78224;SDS011;67498;53.650;10.090;2024-01-16T01:17:47;4.45;;;1.15;;
78224;SDS011;67498;53.650;10.090;2024-01-16T01:20:17;4.72;;;0.80;;
78224;SDS011;67498;53.650;10.090;2024-01-16T01:22:43;2.97;;;0.88;;
78224;SDS011;67498;53.650;10.090;2024-01-16T01:25:09;2.88;;;0.70;;
78224;SDS011;67498;53.650;10.090;2024-01-16T01:27:35;2.72;;;0.70;;
78224;SDS011;67498;53.650;10.090;2024-01-16T01:30:01;4.73;;;1.20;;
78224;SDS011;67498;53.650;10.090;2024-01-16T01:32:26;3.63;;;1.13;;
78224;SDS011;67498;53.650;10.090;2024-01-16T01:34:52;2.60;;;0.60;;
78224;SDS011;67498;53.650;10.090;2024-01-16T01:37:17;3.08;;;0.90;;
78224;SDS011;67498;53.650;10.090;2024-01-16T01:39:42;3.20;;;1.13;;
78224;SDS011;67498;53.650;10.090;2024-01-16T01:42:08;3.37;;;1.00;;
78224;SDS011;67498;53.650;10.090;2024-01-16T01:44:33;4.07;;;0.73;;
78224;SDS011;67498;53.650;10.090;2024-01-16T01:46:58;1.97;;;0.43;;
78224;SDS011;67498;53.650;10.090;2024-01-16T01:49:24;2.40;;;0.70;;
78224;SDS011;67498;53.650;10.090;2024-01-16T01:51:51;2.63;;;0.75;;
78224;SDS011;67498;53.650;10.090;2024-01-16T01:54:16;2.83;;;0.80;;
78224;SDS011;67498;53.650;10.090;2024-01-16T01:56:44;2.20;;;0.70;;
78224;SDS011;67498;53.650;10.090;2024-01-16T01:59:10;2.37;;;0.63;;
78224;SDS011;67498;53.650;10.090;2024-01-16T02:01:36;3.42;;;1.15;;
78224;SDS011;67498;53.650;10.090;2024-01-16T02:04:01;3.73;;;0.90;;
78224;SDS011;67498;53.650;10.090;2024-01-16T02:06:27;2.57;;;0.70;;
78224;SDS011;67498;53.650;10.090;2024-01-16T02:08:53;2.63;;;0.82;;
78224;SDS011;67498;53.650;10.090;2024-01-16T02:11:18;3.43;;;0.90;;
78224;SDS011;67498;53.650;10.090;2024-01-16T02:13:44;1.83;;;0.50;;
78224;SDS011;67498;53.650;10.090;2024-01-16T02:16:19;3.58;;;1.00;;
78224;SDS011;67498;53.650;10.090;2024-01-16T02:18:49;3.97;;;0.93;;
78224;SDS011;67498;53.650;10.090;2024-01-16T02:21:17;4.20;;;1.23;;
78224;SDS011;67498;53.650;10.090;2024-01-16T02:23:46;2.20;;;0.60;;
78224;SDS011;67498;53.650;10.090;2024-01-16T02:26:13;3.03;;;0.90;;
78224;SDS011;67498;53.650;10.090;2024-01-16T02:28:40;8.70;;;1.52;;
78224;SDS011;67498;53.650;10.090;2024-01-16T02:31:07;3.37;;;0.90;;
78224;SDS011;67498;53.650;10.090;2024-01-16T02:33:32;9.48;;;0.95;;
78224;SDS011;67498;53.650;10.090;2024-01-16T02:35:58;6.87;;;1.57;;
78224;SDS011;67498;53.650;10.090;2024-01-16T02:38:23;3.23;;;1.00;;
78224;SDS011;67498;53.650;10.090;2024-01-16T02:40:49;2.85;;;1.05;;
78224;SDS011;67498;53.650;10.090;2024-01-16T02:43:15;2.30;;;0.50;;
78224;SDS011;67498;53.650;10.090;2024-01-16T02:45:40;2.80;;;0.70;;
78224;SDS011;67498;53.650;10.090;2024-01-16T02:48:06;10.83;;;1.50;;
78224;SDS011;67498;53.650;10.090;2024-01-16T02:50:31;4.63;;;1.30;;
78224;SDS011;67498;53.650;10.090;2024-01-16T02:52:56;1.93;;;0.40;;
78224;SDS011;67498;53.650;10.090;2024-01-16T02:55:21;4.60;;;1.50;;
78224;SDS011;67498;53.650;10.090;2024-01-16T02:57:47;3.70;;;0.90;;
78224;SDS011;67498;53.650;10.090;2024-01-16T03:00:12;3.20;;;0.70;;
78224;SDS011;67498;53.650;10.090;2024-01-16T03:02:38;2.80;;;0.85;;
78224;SDS011;67498;53.650;10.090;2024-01-16T03:05:04;2.50;;;0.83;;
78224;SDS011;67498;53.650;10.090;2024-01-16T03:07:32;2.50;;;0.80;;
78224;SDS011;67498;53.650;10.090;2024-01-16T03:09:57;4.77;;;1.03;;
78224;SDS011;67498;53.650;10.090;2024-01-16T03:12:23;4.75;;;1.23;;
78224;SDS011;67498;53.650;10.090;2024-01-16T03:14:48;5.65;;;1.75;;
78224;SDS011;67498;53.650;10.090;2024-01-16T03:17:14;6.83;;;1.77;;
78224;SDS011;67498;53.650;10.090;2024-01-16T03:19:39;3.63;;;1.30;;
78224;SDS011;67498;53.650;10.090;2024-01-16T03:22:04;4.30;;;1.43;;
78224;SDS011;67498;53.650;10.090;2024-01-16T03:24:30;5.63;;;1.67;;
78224;SDS011;67498;53.650;10.090;2024-01-16T03:26:55;4.83;;;2.17;;
78224;SDS011;67498;53.650;10.090;2024-01-16T03:29:20;3.95;;;1.30;;
78224;SDS011;67498;53.650;10.090;2024-01-16T03:31:46;7.23;;;1.80;;
78224;SDS011;67498;53.650;10.090;2024-01-16T03:34:11;5.77;;;1.63;;
78224;SDS011;67498;53.650;10.090;2024-01-16T03:36:36;7.07;;;1.70;;
78224;SDS011;67498;53.650;10.090;2024-01-16T03:39:02;5.50;;;1.90;;
78224;SDS011;67498;53.650;10.090;2024-01-16T03:41:27;4.30;;;1.30;;
78224;SDS011;67498;53.650;10.090;2024-01-16T03:43:52;6.95;;;1.70;;
78224;SDS011;67498;53.650;10.090;2024-01-16T03:46:21;4.07;;;1.30;;
78224;SDS011;67498;53.650;10.090;2024-01-16T03:48:47;5.13;;;1.98;;
78224;SDS011;67498;53.650;10.090;2024-01-16T03:51:12;4.50;;;1.80;;
78224;SDS011;67498;53.650;10.090;2024-01-16T03:53:40;5.90;;;2.13;;
78224;SDS011;67498;53.650;10.090;2024-01-16T03:56:05;7.68;;;2.50;;
78224;SDS011;67498;53.650;10.090;2024-01-16T03:58:32;5.67;;;2.00;;
78224;SDS011;67498;53.650;10.090;2024-01-16T04:00:58;7.70;;;2.00;;
78224;SDS011;67498;53.650;10.090;2024-01-16T04:03:23;12.23;;;2.43;;
78224;SDS011;67498;53.650;10.090;2024-01-16T04:05:48;6.37;;;2.27;;
78224;SDS011;67498;53.650;10.090;2024-01-16T04:08:14;6.57;;;1.97;;
78224;SDS011;67498;53.650;10.090;2024-01-16T04:10:39;8.93;;;2.17;;
78224;SDS011;67498;53.650;10.090;2024-01-16T04:13:04;5.00;;;1.57;;
78224;SDS011;67498;53.650;10.090;2024-01-16T04:15:29;5.23;;;1.80;;
78224;SDS011;67498;53.650;10.090;2024-01-16T04:17:55;8.23;;;2.60;;
78224;SDS011;67498;53.650;10.090;2024-01-16T04:20:20;5.20;;;1.53;;
78224;SDS011;67498;53.650;10.090;2024-01-16T04:22:46;5.50;;;2.10;;
78224;SDS011;67498;53.650;10.090;2024-01-16T04:25:11;4.83;;;1.20;;
78224;SDS011;67498;53.650;10.090;2024-01-16T04:27:36;7.37;;;2.33;;
78224;SDS011;67498;53.650;10.090;2024-01-16T04:30:02;13.67;;;5.23;;
78224;SDS011;67498;53.650;10.090;2024-01-16T04:32:28;6.30;;;1.70;;
78224;SDS011;67498;53.650;10.090;2024-01-16T04:34:53;4.57;;;2.03;;
78224;SDS011;67498;53.650;10.090;2024-01-16T04:37:18;3.60;;;1.23;;
78224;SDS011;67498;53.650;10.090;2024-01-16T04:39:43;5.87;;;1.67;;
78224;SDS011;67498;53.650;10.090;2024-01-16T04:42:09;5.77;;;2.10;;
78224;SDS011;67498;53.650;10.090;2024-01-16T04:44:34;9.03;;;2.87;;
78224;SDS011;67498;53.650;10.090;2024-01-16T04:46:59;4.67;;;2.00;;
78224;SDS011;67498;53.650;10.090;2024-01-16T04:49:25;5.40;;;1.47;;
78224;SDS011;67498;53.650;10.090;2024-01-16T04:51:50;6.57;;;2.43;;
78224;SDS011;67498;53.650;10.090;2024-01-16T04:54:15;6.45;;;1.98;;
78224;SDS011;67498;53.650;10.090;2024-01-16T04:56:40;5.30;;;1.33;;
78224;SDS011;67498;53.650;10.090;2024-01-16T04:59:06;3.47;;;1.33;;
78224;SDS011;67498;53.650;10.090;2024-01-16T05:01:31;7.03;;;2.57;;
78224;SDS011;67498;53.650;10.090;2024-01-16T05:03:56;5.20;;;2.23;;
78224;SDS011;67498;53.650;10.090;2024-01-16T05:06:21;7.80;;;1.87;;
78224;SDS011;67498;53.650;10.090;2024-01-16T05:08:47;6.10;;;1.83;;
78224;SDS011;67498;53.650;10.090;2024-01-16T05:11:12;7.37;;;2.37;;
78224;SDS011;67498;53.650;10.090;2024-01-16T05:13:37;5.70;;;2.17;;
78224;SDS011;67498;53.650;10.090;2024-01-16T05:16:03;6.50;;;2.33;;
78224;SDS011;67498;53.650;10.090;2024-01-16T05:18:28;6.27;;;2.90;;
78224;SDS011;67498;53.650;10.090;2024-01-16T05:20:53;5.80;;;2.57;;
78224;SDS011;67498;53.650;10.090;2024-01-16T05:23:21;4.72;;;1.88;;
78224;SDS011;67498;53.650;10.090;2024-01-16T05:25:46;3.88;;;1.42;;
78224;SDS011;67498;53.650;10.090;2024-01-16T05:28:11;6.73;;;2.53;;
78224;SDS011;67498;53.650;10.090;2024-01-16T05:30:37;4.67;;;1.57;;
78224;SDS011;67498;53.650;10.090;2024-01-16T05:33:02;7.73;;;2.40;;
78224;SDS011;67498;53.650;10.090;2024-01-16T05:35:28;6.00;;;1.63;;
78224;SDS011;67498;53.650;10.090;2024-01-16T05:37:53;5.87;;;1.63;;
78224;SDS011;67498;53.650;10.090;2024-01-16T05:40:19;7.53;;;2.08;;
78224;SDS011;67498;53.650;10.090;2024-01-16T05:42:44;5.47;;;1.90;;
78224;SDS011;67498;53.650;10.090;2024-01-16T05:45:10;7.45;;;1.67;;
78224;SDS011;67498;53.650;10.090;2024-01-16T05:47:35;4.03;;;1.50;;
78224;SDS011;67498;53.650;10.090;2024-01-16T05:50:01;4.00;;;1.57;;
78224;SDS011;67498;53.650;10.090;2024-01-16T05:52:26;4.00;;;0.87;;
78224;SDS011;67498;53.650;10.090;2024-01-16T05:54:51;4.10;;;1.27;;
78224;SDS011;67498;53.650;10.090;2024-01-16T05:57:17;3.90;;;1.37;;
78224;SDS011;67498;53.650;10.090;2024-01-16T05:59:42;3.10;;;0.97;;
78224;SDS011;67498;53.650;10.090;2024-01-16T06:02:07;3.30;;;0.97;;
78224;SDS011;67498;53.650;10.090;2024-01-16T06:04:32;11.33;;;1.00;;
78224;SDS011;67498;53.650;10.090;2024-01-16T06:06:57;2.87;;;0.83;;
78224;SDS011;67498;53.650;10.090;2024-01-16T06:09:23;3.23;;;1.13;;
78224;SDS011;67498;53.650;10.090;2024-01-16T06:11:48;2.20;;;0.57;;
78224;SDS011;67498;53.650;10.090;2024-01-16T06:14:14;2.40;;;0.57;;
78224;SDS011;67498;53.650;10.090;2024-01-16T06:16:44;3.23;;;0.87;;
78224;SDS011;67498;53.650;10.090;2024-01-16T06:19:09;2.47;;;0.70;;
78224;SDS011;67498;53.650;10.090;2024-01-16T06:21:35;3.97;;;0.83;;
78224;SDS011;67498;53.650;10.090;2024-01-16T06:24:00;6.20;;;0.87;;
78224;SDS011;67498;53.650;10.090;2024-01-16T06:26:25;1.43;;;0.40;;
78224;SDS011;67498;53.650;10.090;2024-01-16T06:28:50;7.83;;;0.40;;
78224;SDS011;67498;53.650;10.090;2024-01-16T06:31:16;1.65;;;0.52;;
78224;SDS011;67498;53.650;10.090;2024-01-16T06:33:41;2.83;;;0.70;;
78224;SDS011;67498;53.650;10.090;2024-01-16T06:36:06;3.63;;;0.60;;
78224;SDS011;67498;53.650;10.090;2024-01-16T06:38:32;2.30;;;0.40;;
78224;SDS011;67498;53.650;10.090;2024-01-16T06:40:57;1.03;;;0.13;;
78224;SDS011;67498;53.650;10.090;2024-01-16T06:43:23;1.23;;;0.32;;
78224;SDS011;67498;53.650;10.090;2024-01-16T06:45:48;2.67;;;0.70;;
78224;SDS011;67498;53.650;10.090;2024-01-16T06:48:13;2.40;;;0.43;;
78224;SDS011;67498;53.650;10.090;2024-01-16T06:50:39;4.27;;;1.03;;
78224;SDS011;67498;53.650;10.090;2024-01-16T06:53:04;6.47;;;0.50;;
78224;SDS011;67498;53.650;10.090;2024-01-16T06:55:29;3.80;;;1.00;;
78224;SDS011;67498;53.650;10.090;2024-01-16T06:57:54;4.57;;;0.67;;
78224;SDS011;67498;53.650;10.090;2024-01-16T07:00:20;10.03;;;0.93;;
78224;SDS011;67498;53.650;10.090;2024-01-16T07:02:47;4.05;;;0.85;;
78224;SDS011;67498;53.650;10.090;2024-01-16T07:05:12;3.33;;;0.70;;
78224;SDS011;67498;53.650;10.090;2024-01-16T07:07:38;2.03;;;0.37;;
78224;SDS011;67498;53.650;10.090;2024-01-16T07:10:03;3.73;;;0.90;;
78224;SDS011;67498;53.650;10.090;2024-01-16T07:12:33;3.17;;;0.93;;
78224;SDS011;67498;53.650;10.090;2024-01-16T07:14:58;1.63;;;0.40;;
78224;SDS011;67498;53.650;10.090;2024-01-16T07:17:23;1.77;;;0.50;;
78224;SDS011;67498;53.650;10.090;2024-01-16T07:19:48;4.67;;;0.60;;
78224;SDS011;67498;53.650;10.090;2024-01-16T07:22:14;2.67;;;0.50;;
78224;SDS011;67498;53.650;10.090;2024-01-16T07:24:40;4.45;;;0.52;;
78224;SDS011;67498;53.650;10.090;2024-01-16T07:27:06;2.27;;;0.90;;
78224;SDS011;67498;53.650;10.090;2024-01-16T07:29:31;7.78;;;1.05;;
78224;SDS011;67498;53.650;10.090;2024-01-16T07:31:56;2.53;;;0.63;;
78224;SDS011;67498;53.650;10.090;2024-01-16T07:34:22;5.83;;;0.70;;
78224;SDS011;67498;53.650;10.090;2024-01-16T07:36:47;1.40;;;0.30;;
78224;SDS011;67498;53.650;10.090;2024-01-16T07:39:13;2.03;;;0.40;;
78224;SDS011;67498;53.650;10.090;2024-01-16T07:41:39;1.75;;;0.35;;
78224;SDS011;67498;53.650;10.090;2024-01-16T07:44:05;3.10;;;0.68;;
78224;SDS011;67498;53.650;10.090;2024-01-16T07:46:30;6.47;;;0.57;;
78224;SDS011;67498;53.650;10.090;2024-01-16T07:48:55;4.83;;;1.33;;
78224;SDS011;67498;53.650;10.090;2024-01-16T07:51:20;4.20;;;1.10;;
78224;SDS011;67498;53.650;10.090;2024-01-16T07:53:46;1.33;;;0.30;;
78224;SDS011;67498;53.650;10.090;2024-01-16T07:56:12;4.38;;;0.75;;
78224;SDS011;67498;53.650;10.090;2024-01-16T07:58:37;3.42;;;0.82;;
78224;SDS011;67498;53.650;10.090;2024-01-16T08:01:03;2.05;;;0.38;;
78224;SDS011;67498;53.650;10.090;2024-01-16T08:03:28;2.05;;;0.43;;
78224;SDS011;67498;53.650;10.090;2024-01-16T08:05:53;3.20;;;0.90;;
78224;SDS011;67498;53.650;10.090;2024-01-16T08:08:18;2.00;;;0.57;;
78224;SDS011;67498;53.650;10.090;2024-01-16T08:10:44;3.57;;;0.50;;
78224;SDS011;67498;53.650;10.090;2024-01-16T08:13:09;2.13;;;0.40;;
78224;SDS011;67498;53.650;10.090;2024-01-16T08:15:35;3.60;;;0.57;;
78224;SDS011;67498;53.650;10.090;2024-01-16T08:18:00;1.67;;;0.68;;
78224;SDS011;67498;53.650;10.090;2024-01-16T08:20:25;3.20;;;0.50;;
78224;SDS011;67498;53.650;10.090;2024-01-16T08:22:51;4.20;;;0.60;;
78224;SDS011;67498;53.650;10.090;2024-01-16T08:25:16;3.30;;;0.80;;
78224;SDS011;67498;53.650;10.090;2024-01-16T08:27:42;2.87;;;1.20;;
78224;SDS011;67498;53.650;10.090;2024-01-16T08:30:08;4.18;;;1.02;;
78224;SDS011;67498;53.650;10.090;2024-01-16T08:32:34;2.78;;;0.70;;
78224;SDS011;67498;53.650;10.090;2024-01-16T08:35:00;6.00;;;1.07;;
78224;SDS011;67498;53.650;10.090;2024-01-16T08:37:26;4.22;;;1.10;;
78224;SDS011;67498;53.650;10.090;2024-01-16T08:39:51;2.93;;;0.90;;
78224;SDS011;67498;53.650;10.090;2024-01-16T08:42:17;3.07;;;0.70;;
78224;SDS011;67498;53.650;10.090;2024-01-16T08:44:43;3.35;;;0.88;;
78224;SDS011;67498;53.650;10.090;2024-01-16T08:47:08;4.93;;;1.50;;
78224;SDS011;67498;53.650;10.090;2024-01-16T08:49:34;4.85;;;1.35;;
78224;SDS011;67498;53.650;10.090;2024-01-16T08:52:00;5.15;;;1.00;;
78224;SDS011;67498;53.650;10.090;2024-01-16T08:54:25;3.10;;;0.77;;
78224;SDS011;67498;53.650;10.090;2024-01-16T08:56:51;2.35;;;0.63;;
78224;SDS011;67498;53.650;10.090;2024-01-16T08:59:17;8.50;;;0.80;;
78224;SDS011;67498;53.650;10.090;2024-01-16T09:01:43;2.80;;;0.67;;
78224;SDS011;67498;53.650;10.090;2024-01-16T09:04:08;3.80;;;1.30;;
78224;SDS011;67498;53.650;10.090;2024-01-16T09:06:34;2.17;;;0.50;;
78224;SDS011;67498;53.650;10.090;2024-01-16T09:09:00;7.47;;;1.20;;
78224;SDS011;67498;53.650;10.090;2024-01-16T09:11:25;3.50;;;1.03;;
78224;SDS011;67498;53.650;10.090;2024-01-16T09:13:50;3.23;;;1.03;;
78224;SDS011;67498;53.650;10.090;2024-01-16T09:16:16;4.03;;;1.27;;
78224;SDS011;67498;53.650;10.090;2024-01-16T09:18:42;6.37;;;1.00;;
78224;SDS011;67498;53.650;10.090;2024-01-16T09:21:07;13.17;;;1.00;;
78224;SDS011;67498;53.650;10.090;2024-01-16T09:23:32;3.17;;;0.83;;
78224;SDS011;67498;53.650;10.090;2024-01-16T09:25:57;2.70;;;0.83;;
78224;SDS011;67498;53.650;10.090;2024-01-16T09:28:23;7.73;;;0.80;;
78224;SDS011;67498;53.650;10.090;2024-01-16T09:30:49;3.15;;;1.17;;
78224;SDS011;67498;53.650;10.090;2024-01-16T09:33:14;2.67;;;0.83;;
78224;SDS011;67498;53.650;10.090;2024-01-16T09:35:41;6.63;;;1.70;;
78224;SDS011;67498;53.650;10.090;2024-01-16T09:38:07;3.60;;;1.10;;
78224;SDS011;67498;53.650;10.090;2024-01-16T09:40:33;4.68;;;1.15;;
78224;SDS011;67498;53.650;10.090;2024-01-16T09:43:00;2.88;;;0.75;;
78224;SDS011;67498;53.650;10.090;2024-01-16T09:45:25;2.25;;;0.77;;
78224;SDS011;67498;53.650;10.090;2024-01-16T09:47:54;3.50;;;0.93;;
78224;SDS011;67498;53.650;10.090;2024-01-16T09:50:20;4.55;;;1.38;;
78224;SDS011;67498;53.650;10.090;2024-01-16T09:52:45;3.97;;;0.90;;
78224;SDS011;67498;53.650;10.090;2024-01-16T09:55:12;6.95;;;1.10;;
78224;SDS011;67498;53.650;10.090;2024-01-16T09:57:39;2.45;;;0.80;;
78224;SDS011;67498;53.650;10.090;2024-01-16T10:00:08;2.47;;;0.63;;
78224;SDS011;67498;53.650;10.090;2024-01-16T10:02:38;5.80;;;0.93;;
78224;SDS011;67498;53.650;10.090;2024-01-16T10:05:05;3.70;;;0.73;;
78224;SDS011;67498;53.650;10.090;2024-01-16T10:07:33;4.88;;;1.23;;
78224;SDS011;67498;53.650;10.090;2024-01-16T10:09:59;21.58;;;2.47;;
78224;SDS011;67498;53.650;10.090;2024-01-16T10:12:25;2.87;;;0.80;;
78224;SDS011;67498;53.650;10.090;2024-01-16T10:14:50;8.77;;;1.13;;
78224;SDS011;67498;53.650;10.090;2024-01-16T10:17:17;4.17;;;0.97;;
78224;SDS011;67498;53.650;10.090;2024-01-16T10:19:52;4.28;;;0.80;;
78224;SDS011;67498;53.650;10.090;2024-01-16T10:22:23;4.45;;;0.70;;
78224;SDS011;67498;53.650;10.090;2024-01-16T10:25:11;2.75;;;0.73;;
78224;SDS011;67498;53.650;10.090;2024-01-16T10:27:41;2.58;;;0.45;;
78224;SDS011;67498;53.650;10.090;2024-01-16T10:30:07;1.80;;;0.47;;
78224;SDS011;67498;53.650;10.090;2024-01-16T10:32:34;3.28;;;0.38;;
78224;SDS011;67498;53.650;10.090;2024-01-16T10:35:01;3.47;;;0.70;;
78224;SDS011;67498;53.650;10.090;2024-01-16T10:37:30;5.40;;;0.77;;
78224;SDS011;67498;53.650;10.090;2024-01-16T10:40:05;4.63;;;0.63;;
78224;SDS011;67498;53.650;10.090;2024-01-16T10:42:32;1.60;;;0.30;;
78224;SDS011;67498;53.650;10.090;2024-01-16T10:44:57;4.35;;;0.70;;
78224;SDS011;67498;53.650;10.090;2024-01-16T10:47:23;2.00;;;0.60;;
78224;SDS011;67498;53.650;10.090;2024-01-16T10:49:48;8.87;;;0.47;;
78224;SDS011;67498;53.650;10.090;2024-01-16T10:52:13;3.07;;;0.53;;
78224;SDS011;67498;53.650;10.090;2024-01-16T10:54:42;3.08;;;0.35;;
78224;SDS011;67498;53.650;10.090;2024-01-16T10:57:14;2.30;;;0.30;;
78224;SDS011;67498;53.650;10.090;2024-01-16T10:59:42;2.03;;;0.50;;
78224;SDS011;67498;53.650;10.090;2024-01-16T11:02:16;3.28;;;0.77;;
78224;SDS011;67498;53.650;10.090;2024-01-16T11:04:46;3.90;;;0.95;;
78224;SDS011;67498;53.650;10.090;2024-01-16T11:07:13;3.08;;;0.63;;
78224;SDS011;67498;53.650;10.090;2024-01-16T11:09:38;2.90;;;0.23;;
78224;SDS011;67498;53.650;10.090;2024-01-16T11:12:04;2.53;;;0.50;;
78224;SDS011;67498;53.650;10.090;2024-01-16T11:14:30;1.65;;;0.30;;
78224;SDS011;67498;53.650;10.090;2024-01-16T11:16:56;3.67;;;0.90;;
78224;SDS011;67498;53.650;10.090;2024-01-16T11:19:23;1.77;;;0.30;;
78224;SDS011;67498;53.650;10.090;2024-01-16T11:21:49;2.25;;;0.43;;
78224;SDS011;67498;53.650;10.090;2024-01-16T11:24:14;1.40;;;0.30;;
78224;SDS011;67498;53.650;10.090;2024-01-16T11:26:40;5.00;;;0.60;;
78224;SDS011;67498;53.650;10.090;2024-01-16T11:31:59;1.52;;;0.30;;
78224;SDS011;67498;53.650;10.090;2024-01-16T11:37:07;5.18;;;1.38;;
78224;SDS011;67498;53.650;10.090;2024-01-16T11:39:33;1.37;;;0.30;;
78224;SDS011;67498;53.650;10.090;2024-01-16T11:41:58;2.90;;;0.50;;
78224;SDS011;67498;53.650;10.090;2024-01-16T11:47:08;1.40;;;0.30;;
78224;SDS011;67498;53.650;10.090;2024-01-16T11:49:37;2.55;;;0.35;;
78224;SDS011;67498;53.650;10.090;2024-01-16T11:52:02;5.50;;;0.43;;
78224;SDS011;67498;53.650;10.090;2024-01-16T11:54:28;1.20;;;0.30;;
78224;SDS011;67498;53.650;10.090;2024-01-16T12:00:01;1.58;;;0.30;;
78224;SDS011;67498;53.650;10.090;2024-01-16T12:02:55;1.95;;;0.30;;
78224;SDS011;67498;53.650;10.090;2024-01-16T12:05:21;2.37;;;0.40;;
78224;SDS011;67498;53.650;10.090;2024-01-16T12:07:47;4.78;;;0.57;;
78224;SDS011;67498;53.650;10.090;2024-01-16T12:10:18;1.00;;;0.20;;
78224;SDS011;67498;53.650;10.090;2024-01-16T12:12:45;2.13;;;0.50;;
78224;SDS011;67498;53.650;10.090;2024-01-16T12:15:14;2.08;;;0.50;;
78224;SDS011;67498;53.650;10.090;2024-01-16T12:17:51;2.13;;;0.30;;
78224;SDS011;67498;53.650;10.090;2024-01-16T12:20:20;1.67;;;0.43;;
78224;SDS011;67498;53.650;10.090;2024-01-16T12:22:53;1.42;;;0.20;;
78224;SDS011;67498;53.650;10.090;2024-01-16T12:25:22;4.63;;;0.60;;
78224;SDS011;67498;53.650;10.090;2024-01-16T12:27:55;2.60;;;0.25;;
78224;SDS011;67498;53.650;10.090;2024-01-16T12:30:21;1.92;;;0.32;;
78224;SDS011;67498;53.650;10.090;2024-01-16T12:32:48;2.10;;;0.40;;
78224;SDS011;67498;53.650;10.090;2024-01-16T12:35:19;1.75;;;0.30;;
78224;SDS011;67498;53.650;10.090;2024-01-16T12:37:57;4.73;;;0.80;;
78224;SDS011;67498;53.650;10.090;2024-01-16T12:40:30;2.63;;;0.32;;
78224;SDS011;67498;53.650;10.090;2024-01-16T12:42:55;5.10;;;0.73;;
78224;SDS011;67498;53.650;10.090;2024-01-16T12:45:21;8.65;;;1.33;;
78224;SDS011;67498;53.650;10.090;2024-01-16T12:47:51;14.53;;;0.63;;
78224;SDS011;67498;53.650;10.090;2024-01-16T12:50:25;3.10;;;0.47;;
78224;SDS011;67498;53.650;10.090;2024-01-16T12:55:29;3.53;;;0.43;;
78224;SDS011;67498;53.650;10.090;2024-01-16T13:00:46;3.05;;;0.60;;
78224;SDS011;67498;53.650;10.090;2024-01-16T13:03:16;1.33;;;0.20;;
78224;SDS011;67498;53.650;10.090;2024-01-16T13:05:44;2.38;;;0.22;;
78224;SDS011;67498;53.650;10.090;2024-01-16T13:08:16;1.92;;;0.30;;
78224;SDS011;67498;53.650;10.090;2024-01-16T13:10:44;2.87;;;0.83;;
78224;SDS011;67498;53.650;10.090;2024-01-16T13:13:16;1.23;;;0.20;;
78224;SDS011;67498;53.650;10.090;2024-01-16T13:15:43;2.05;;;0.63;;
78224;SDS011;67498;53.650;10.090;2024-01-16T13:20:51;3.28;;;0.50;;
78224;SDS011;67498;53.650;10.090;2024-01-16T13:23:18;2.53;;;0.65;;
78224;SDS011;67498;53.650;10.090;2024-01-16T13:25:44;3.50;;;0.97;;
78224;SDS011;67498;53.650;10.090;2024-01-16T13:28:11;3.40;;;0.80;;
78224;SDS011;67498;53.650;10.090;2024-01-16T13:30:37;4.70;;;0.75;;
78224;SDS011;67498;53.650;10.090;2024-01-16T13:33:03;3.23;;;0.50;;
78224;SDS011;67498;53.650;10.090;2024-01-16T13:35:29;2.25;;;0.35;;
78224;SDS011;67498;53.650;10.090;2024-01-16T13:37:55;2.90;;;0.87;;
78224;SDS011;67498;53.650;10.090;2024-01-16T13:40:20;2.40;;;0.30;;
78224;SDS011;67498;53.650;10.090;2024-01-16T13:42:47;5.97;;;0.55;;
78224;SDS011;67498;53.650;10.090;2024-01-16T13:45:13;1.90;;;0.40;;
78224;SDS011;67498;53.650;10.090;2024-01-16T13:47:38;2.45;;;0.50;;
78224;SDS011;67498;53.650;10.090;2024-01-16T13:50:05;2.50;;;0.30;;
78224;SDS011;67498;53.650;10.090;2024-01-16T13:52:32;8.40;;;0.70;;
78224;SDS011;67498;53.650;10.090;2024-01-16T13:54:58;1.42;;;0.28;;
78224;SDS011;67498;53.650;10.090;2024-01-16T13:57:24;7.63;;;0.40;;
78224;SDS011;67498;53.650;10.090;2024-01-16T13:59:49;4.87;;;0.57;;
78224;SDS011;67498;53.650;10.090;2024-01-16T14:02:16;4.05;;;0.60;;
78224;SDS011;67498;53.650;10.090;2024-01-16T14:04:41;1.73;;;0.30;;
78224;SDS011;67498;53.650;10.090;2024-01-16T14:07:06;4.63;;;0.73;;
78224;SDS011;67498;53.650;10.090;2024-01-16T14:09:33;3.15;;;0.80;;
78224;SDS011;67498;53.650;10.090;2024-01-16T14:11:59;1.93;;;0.50;;
78224;SDS011;67498;53.650;10.090;2024-01-16T14:14:24;3.58;;;0.73;;
78224;SDS011;67498;53.650;10.090;2024-01-16T14:16:49;2.97;;;0.80;;
78224;SDS011;67498;53.650;10.090;2024-01-16T14:19:15;3.63;;;0.73;;
78224;SDS011;67498;53.650;10.090;2024-01-16T14:21:41;4.03;;;1.08;;
78224;SDS011;67498;53.650;10.090;2024-01-16T14:24:06;5.53;;;1.13;;
78224;SDS011;67498;53.650;10.090;2024-01-16T14:26:32;4.57;;;1.20;;
78224;SDS011;67498;53.650;10.090;2024-01-16T14:28:57;2.83;;;1.03;;
78224;SDS011;67498;53.650;10.090;2024-01-16T14:31:22;10.13;;;1.60;;
78224;SDS011;67498;53.650;10.090;2024-01-16T14:33:48;5.67;;;1.00;;
78224;SDS011;67498;53.650;10.090;2024-01-16T14:36:13;12.73;;;2.00;;
78224;SDS011;67498;53.650;10.090;2024-01-16T14:38:39;6.30;;;1.63;;
78224;SDS011;67498;53.650;10.090;2024-01-16T14:41:04;6.07;;;0.73;;
78224;SDS011;67498;53.650;10.090;2024-01-16T14:43:30;6.88;;;1.52;;
78224;SDS011;67498;53.650;10.090;2024-01-16T14:45:55;3.67;;;1.10;;